createdAt,value
2023-04-14T00:00:24.792Z,4.40
2023-04-14T00:01:27.729Z,3.00
2023-04-14T00:02:32.476Z,7.20
2023-04-14T00:03:35.764Z,5.40
2023-04-14T00:04:39.308Z,6.10
2023-04-14T00:05:42.537Z,6.70
2023-04-14T00:06:45.281Z,2.55
2023-04-14T00:07:49.682Z,7.00
2023-04-14T00:08:53.004Z,6.60
2023-04-14T00:09:56.114Z,6.60
2023-04-14T00:10:59.918Z,6.20
2023-04-14T00:12:03.313Z,6.40
2023-04-14T00:13:06.615Z,7.00
2023-04-14T00:14:10.021Z,4.82
2023-04-14T00:15:13.902Z,5.10
2023-04-14T00:16:17.434Z,5.30
2023-04-14T00:17:20.752Z,6.27
2023-04-14T00:18:24.151Z,4.70
2023-04-14T00:19:27.547Z,5.90
2023-04-14T00:20:31.842Z,4.80
2023-04-14T00:21:37.180Z,4.50
2023-04-14T00:22:40.366Z,2.90
2023-04-14T00:23:43.171Z,5.60
2023-04-14T00:24:47.050Z,5.60
2023-04-14T00:25:50.632Z,5.30
2023-04-14T00:26:53.561Z,4.80
2023-04-14T00:27:57.089Z,5.70
2023-04-14T00:30:13.430Z,5.40
2023-04-14T00:31:16.478Z,5.70
2023-04-14T00:32:21.768Z,4.60
2023-04-14T00:33:25.546Z,4.50
2023-04-14T00:34:29.738Z,5.70
2023-04-14T00:35:32.422Z,5.91
2023-04-14T00:36:37.367Z,5.55
2023-04-14T00:37:40.551Z,5.00
2023-04-14T00:38:43.431Z,5.30
2023-04-14T00:39:46.442Z,4.73
2023-04-14T00:40:49.457Z,5.30
2023-04-14T00:41:52.680Z,4.82
2023-04-14T00:42:55.621Z,3.70
2023-04-14T00:43:58.581Z,5.55
2023-04-14T00:45:01.507Z,4.40
2023-04-14T00:46:05.533Z,4.10
2023-04-14T00:47:08.496Z,3.10
2023-04-14T00:48:12.313Z,3.45
2023-04-14T00:49:16.207Z,5.70
2023-04-14T00:50:21.354Z,5.50
2023-04-14T00:51:24.432Z,4.60
2023-04-14T00:52:28.296Z,4.80
2023-04-14T00:53:32.552Z,5.20
2023-04-14T00:54:35.755Z,4.20
2023-04-14T00:55:39.590Z,4.80
2023-04-14T00:56:42.506Z,5.60
2023-04-14T00:57:46.262Z,5.90
2023-04-14T00:58:50.447Z,6.00
2023-04-14T00:59:53.547Z,6.10
2023-04-14T01:00:57.919Z,6.30
2023-04-14T01:02:01.182Z,4.90
2023-04-14T01:03:04.232Z,4.90
2023-04-14T01:04:08.025Z,5.10
2023-04-14T01:05:12.868Z,4.80
2023-04-14T01:06:18.749Z,4.90
2023-04-14T01:07:23.170Z,5.80
2023-04-14T01:08:26.680Z,0.80
2023-04-14T01:09:31.147Z,4.10
2023-04-14T01:10:38.648Z,4.20
2023-04-14T01:11:45.655Z,4.50
2023-04-14T01:13:18.831Z,4.30
2023-04-14T01:14:43.346Z,4.30
2023-04-14T01:15:49.465Z,6.00
2023-04-14T01:16:56.632Z,4.90
2023-04-14T01:18:33.690Z,6.40
2023-04-14T01:20:04.538Z,4.20
2023-04-14T01:21:11.369Z,4.90
2023-04-14T01:22:15.019Z,4.30
2023-04-14T01:23:26.540Z,4.60
2023-04-14T01:26:22.940Z,3.80
2023-04-14T01:27:43.814Z,5.70
2023-04-14T01:29:10.122Z,7.20
2023-04-14T01:30:33.657Z,5.30
2023-04-14T01:31:49.464Z,5.00
2023-04-14T01:32:52.687Z,7.50
2023-04-14T01:35:20.221Z,5.90
2023-04-14T01:36:26.723Z,5.00
2023-04-14T01:38:45.897Z,3.60
2023-04-14T01:39:52.629Z,5.40
2023-04-14T01:40:59.317Z,5.00
2023-04-14T01:42:04.431Z,5.80
2023-04-14T01:43:11.013Z,4.10
2023-04-14T01:44:18.271Z,6.20
2023-04-14T01:45:26.936Z,4.80
2023-04-14T01:46:30.844Z,5.00
2023-04-14T01:47:35.457Z,2.10
2023-04-14T01:48:38.278Z,3.90
2023-04-14T01:49:42.220Z,5.10
2023-04-14T01:50:46.151Z,5.30
2023-04-14T01:51:49.172Z,4.80
2023-04-14T01:52:53.688Z,4.70
2023-04-14T01:53:56.857Z,4.80
2023-04-14T01:55:02.368Z,5.20
2023-04-14T01:56:06.615Z,3.30
2023-04-14T01:57:09.306Z,4.80
2023-04-14T01:58:13.482Z,5.60
2023-04-14T01:59:16.432Z,4.90
2023-04-14T02:01:33.228Z,5.20
2023-04-14T02:02:37.908Z,4.80
2023-04-14T02:03:42.850Z,5.10
2023-04-14T02:04:47.018Z,3.80
2023-04-14T02:05:53.173Z,6.00
2023-04-14T02:06:56.775Z,3.60
2023-04-14T02:07:59.821Z,4.10
2023-04-14T02:09:05.108Z,4.80
2023-04-14T02:10:09.174Z,4.00
2023-04-14T02:11:13.897Z,5.40
2023-04-14T02:12:18.521Z,4.70
2023-04-14T02:13:21.491Z,4.60
2023-04-14T02:14:25.852Z,4.80
2023-04-14T02:16:41.900Z,5.00
2023-04-14T02:17:46.895Z,4.00
2023-04-14T02:18:49.877Z,4.30
2023-04-14T02:19:53.847Z,4.80
2023-04-14T02:20:58.280Z,4.60
2023-04-14T02:22:00.917Z,4.00
2023-04-14T02:23:03.860Z,4.64
2023-04-14T02:24:07.662Z,4.36
2023-04-14T02:25:12.446Z,4.50
2023-04-14T02:26:17.176Z,4.80
2023-04-14T02:27:24.203Z,3.90
2023-04-14T02:29:44.607Z,4.10
2023-04-14T02:30:50.940Z,4.50
2023-04-14T02:32:06.549Z,4.60
2023-04-14T02:33:10.366Z,3.90
2023-04-14T02:34:14.073Z,3.20
2023-04-14T02:35:19.127Z,3.10
2023-04-14T02:36:38.616Z,5.00
2023-04-14T02:37:44.095Z,6.30
2023-04-14T02:38:56.011Z,4.20
2023-04-14T02:40:01.807Z,5.90
2023-04-14T02:42:22.217Z,6.30
2023-04-14T02:43:33.329Z,5.20
2023-04-14T02:44:40.615Z,5.80
2023-04-14T02:45:44.924Z,4.90
2023-04-14T02:46:57.836Z,6.20
2023-04-14T02:48:04.362Z,5.40
2023-04-14T02:49:08.218Z,2.30
2023-04-14T02:50:13.609Z,5.90
2023-04-14T02:51:17.806Z,7.20
2023-04-14T02:52:21.864Z,4.40
2023-04-14T02:53:25.083Z,7.30
2023-04-14T02:54:29.685Z,6.10
2023-04-14T02:55:32.509Z,5.36
2023-04-14T02:56:36.077Z,7.50
2023-04-14T02:57:40.280Z,4.70
2023-04-14T02:58:43.698Z,5.20
2023-04-14T02:59:46.726Z,5.70
2023-04-14T03:00:49.835Z,5.00
2023-04-14T03:01:52.672Z,5.90
2023-04-14T03:02:56.498Z,3.70
2023-04-14T03:03:59.598Z,5.60
2023-04-14T03:05:04.410Z,4.80
2023-04-14T03:06:09.136Z,3.90
2023-04-14T03:07:14.170Z,3.30
2023-04-14T03:08:18.266Z,4.30
2023-04-14T03:09:22.889Z,2.80
2023-04-14T03:10:26.723Z,4.10
2023-04-14T03:11:30.669Z,4.20
2023-04-14T03:12:34.089Z,4.20
2023-04-14T03:13:37.413Z,3.40
2023-04-14T03:14:40.948Z,4.00
2023-04-14T03:15:45.270Z,3.60
2023-04-14T03:16:53.034Z,5.50
2023-04-14T03:17:56.859Z,5.10
2023-04-14T03:19:00.773Z,4.80
2023-04-14T03:20:05.066Z,4.10
2023-04-14T03:21:09.277Z,5.20
2023-04-14T03:22:12.478Z,3.90
2023-04-14T03:23:17.290Z,4.36
2023-04-14T03:24:24.997Z,5.50
2023-04-14T03:25:29.144Z,5.40
2023-04-14T03:26:32.745Z,4.50
2023-04-14T03:27:49.529Z,3.70
2023-04-14T03:28:52.832Z,3.70
2023-04-14T03:29:58.217Z,3.80
2023-04-14T03:31:03.279Z,4.20
2023-04-14T03:32:08.463Z,5.00
2023-04-14T03:33:12.665Z,4.00
2023-04-14T03:34:15.475Z,4.70
2023-04-14T03:35:20.974Z,4.40
2023-04-14T03:36:25.397Z,4.00
2023-04-14T03:37:29.486Z,4.20
2023-04-14T03:38:33.258Z,5.00
2023-04-14T03:39:38.528Z,3.90
2023-04-14T03:40:44.666Z,4.60
2023-04-14T03:41:50.504Z,4.00
2023-04-14T03:42:53.715Z,4.50
2023-04-14T03:43:56.852Z,4.80
2023-04-14T03:45:01.263Z,4.10
2023-04-14T03:46:06.683Z,3.70
2023-04-14T03:47:11.810Z,3.90
2023-04-14T03:48:17.510Z,3.80
2023-04-14T03:49:23.200Z,5.10
2023-04-14T03:50:29.414Z,4.00
2023-04-14T03:51:32.331Z,4.60
2023-04-14T03:52:36.098Z,5.00
2023-04-14T03:53:40.739Z,3.90
2023-04-14T03:54:44.073Z,4.20
2023-04-14T03:55:49.695Z,4.00
2023-04-14T03:56:54.797Z,5.00
2023-04-14T03:57:59.025Z,3.90
2023-04-14T03:59:02.780Z,5.50
2023-04-14T04:00:08.719Z,5.10
2023-04-14T04:01:14.301Z,5.50
2023-04-14T04:02:18.478Z,6.90
2023-04-14T04:03:21.629Z,6.00
2023-04-14T04:04:25.402Z,6.40
2023-04-14T04:05:28.701Z,5.20
2023-04-14T04:06:32.395Z,7.90
2023-04-14T04:08:48.118Z,7.60
2023-04-14T04:09:51.166Z,8.20
2023-04-14T04:10:55.001Z,7.90
2023-04-14T04:11:58.211Z,8.00
2023-04-14T04:13:02.338Z,7.70
2023-04-14T04:14:07.073Z,9.90
2023-04-14T04:15:11.378Z,7.20
2023-04-14T04:16:14.700Z,7.70
2023-04-14T04:17:19.187Z,8.30
2023-04-14T04:18:23.081Z,8.70
2023-04-14T04:19:25.905Z,9.40
2023-04-14T04:20:29.127Z,8.00
2023-04-14T04:21:34.198Z,5.20
2023-04-14T04:22:38.665Z,10.20
2023-04-14T04:23:41.936Z,9.10
2023-04-14T04:24:45.214Z,9.00
2023-04-14T04:25:50.039Z,10.40
2023-04-14T04:26:55.215Z,10.20
2023-04-14T04:27:58.812Z,9.90
2023-04-14T04:29:04.871Z,9.30
2023-04-14T04:30:09.362Z,9.10
2023-04-14T04:31:13.807Z,8.00
2023-04-14T04:32:17.610Z,10.10
2023-04-14T04:33:21.932Z,10.10
2023-04-14T04:34:25.025Z,9.00
2023-04-14T04:35:28.546Z,6.40
2023-04-14T04:36:31.531Z,8.70
2023-04-14T04:37:35.555Z,9.00
2023-04-14T04:38:38.606Z,11.00
2023-04-14T04:39:42.325Z,9.80
2023-04-14T04:40:47.513Z,9.80
2023-04-14T04:42:06.075Z,10.60
2023-04-14T04:43:09.018Z,10.30
2023-04-14T04:44:12.828Z,10.70
2023-04-14T04:46:48.217Z,9.50
2023-04-14T04:47:51.584Z,8.80
2023-04-14T04:48:54.577Z,11.10
2023-04-14T04:49:57.824Z,7.70
2023-04-14T04:51:02.414Z,10.00
2023-04-14T04:52:18.747Z,10.00
2023-04-14T04:53:23.963Z,10.80
2023-04-14T04:54:26.799Z,10.30
2023-04-14T04:55:29.845Z,9.70
2023-04-14T04:56:33.477Z,11.18
2023-04-14T04:57:37.430Z,11.10
2023-04-14T04:58:41.249Z,8.90
2023-04-14T04:59:44.296Z,11.80
2023-04-14T05:00:47.952Z,8.60
2023-04-14T05:01:50.782Z,10.60
2023-04-14T05:02:54.166Z,8.30
2023-04-14T05:03:57.018Z,9.91
2023-04-14T05:05:00.165Z,9.70
2023-04-14T05:06:03.672Z,8.00
2023-04-14T05:07:07.293Z,11.00
2023-04-14T05:08:11.362Z,9.60
2023-04-14T05:09:14.893Z,9.50
2023-04-14T05:10:18.577Z,9.45
2023-04-14T05:11:23.288Z,9.20
2023-04-14T05:12:25.985Z,10.40
2023-04-14T05:13:30.182Z,12.00
2023-04-14T05:14:33.007Z,10.50
2023-04-14T05:15:36.433Z,10.55
2023-04-14T05:16:39.645Z,9.50
2023-04-14T05:17:43.293Z,9.55
2023-04-14T05:18:47.223Z,11.20
2023-04-14T05:19:50.264Z,9.40
2023-04-14T05:21:06.571Z,9.10
2023-04-14T05:22:10.269Z,9.50
2023-04-14T05:23:13.488Z,10.10
2023-04-14T05:24:16.924Z,9.60
2023-04-14T05:25:19.946Z,7.60
2023-04-14T05:27:29.550Z,11.20
2023-04-14T05:28:35.266Z,7.90
2023-04-14T05:29:38.554Z,9.00
2023-04-14T05:30:42.478Z,10.90
2023-04-14T05:31:45.732Z,10.90
2023-04-14T05:32:48.723Z,10.10
2023-04-14T05:33:51.805Z,8.90
2023-04-14T05:34:54.274Z,10.40
2023-04-14T05:35:56.844Z,9.20
2023-04-14T05:37:01.689Z,6.82
2023-04-14T05:38:04.690Z,10.10
2023-04-14T05:39:09.160Z,7.60
2023-04-14T05:40:14.673Z,9.90
2023-04-14T05:41:17.566Z,10.30
2023-04-14T05:42:20.898Z,9.36
2023-04-14T05:43:24.034Z,8.70
2023-04-14T05:44:27.049Z,9.00
2023-04-14T05:45:30.260Z,10.00
2023-04-14T05:46:33.720Z,8.90
2023-04-14T05:47:36.780Z,10.50
2023-04-14T05:48:39.750Z,9.30
2023-04-14T05:49:42.590Z,10.40
2023-04-14T05:50:45.551Z,10.36
2023-04-14T05:51:48.418Z,8.60
2023-04-14T05:52:51.564Z,10.36
2023-04-14T05:53:54.968Z,9.10
2023-04-14T05:54:57.581Z,10.00
2023-04-14T05:56:00.807Z,8.45
2023-04-14T05:57:04.430Z,10.80
2023-04-14T05:58:09.248Z,9.40
2023-04-14T05:59:12.570Z,9.70
2023-04-14T06:00:17.558Z,7.70
2023-04-14T06:01:22.416Z,11.40
2023-04-14T06:02:25.461Z,9.50
2023-04-14T06:04:43.874Z,9.60
2023-04-14T06:05:47.741Z,10.20
2023-04-14T06:06:51.690Z,8.50
2023-04-14T06:07:54.666Z,10.90
2023-04-14T06:08:57.293Z,9.20
2023-04-14T06:10:01.118Z,9.90
2023-04-14T06:11:07.715Z,8.20
2023-04-14T06:13:26.640Z,11.30
2023-04-14T06:14:31.420Z,9.60
2023-04-14T06:15:34.658Z,10.60
2023-04-14T06:16:38.170Z,7.50
2023-04-14T06:17:41.224Z,8.90
2023-04-14T06:18:43.931Z,9.45
2023-04-14T06:19:49.562Z,9.00
2023-04-14T06:20:54.845Z,7.00
2023-04-14T06:21:58.858Z,10.10
2023-04-14T06:23:02.607Z,7.80
2023-04-14T06:24:06.303Z,9.50
2023-04-14T06:25:10.611Z,11.10
2023-04-14T06:26:14.803Z,9.80
2023-04-14T06:27:17.581Z,9.40
2023-04-14T06:28:22.149Z,8.20
2023-04-14T06:29:25.595Z,9.10
2023-04-14T06:30:31.819Z,10.10
2023-04-14T06:31:36.230Z,12.10
2023-04-14T06:32:39.943Z,7.90
2023-04-14T06:33:42.808Z,8.60
2023-04-14T06:34:47.436Z,9.64
2023-04-14T06:35:50.753Z,9.40
2023-04-14T06:36:56.559Z,10.10
2023-04-14T06:37:59.734Z,9.30
2023-04-14T06:39:03.240Z,9.10
2023-04-14T06:40:07.865Z,9.60
2023-04-14T06:41:11.832Z,9.00
2023-04-14T06:42:14.936Z,9.40
2023-04-14T06:43:17.631Z,8.30
2023-04-14T06:44:20.432Z,10.90
2023-04-14T06:45:24.410Z,10.64
2023-04-14T06:46:27.984Z,9.10
2023-04-14T06:47:31.715Z,11.00
2023-04-14T06:48:34.546Z,10.00
2023-04-14T06:49:37.696Z,11.10
2023-04-14T06:50:42.077Z,11.80
2023-04-14T06:51:45.903Z,11.00
2023-04-14T06:52:50.192Z,9.50
2023-04-14T06:53:53.005Z,10.90
2023-04-14T06:54:56.183Z,9.73
2023-04-14T06:55:59.226Z,10.30
2023-04-14T06:57:04.529Z,11.00
2023-04-14T06:58:07.710Z,9.30
2023-04-14T06:59:11.670Z,10.40
2023-04-14T07:00:16.408Z,10.60
2023-04-14T07:01:19.177Z,10.30
2023-04-14T07:02:21.963Z,9.45
2023-04-14T07:03:25.399Z,10.10
2023-04-14T07:04:30.150Z,7.30
2023-04-14T07:05:33.573Z,10.90
2023-04-14T07:06:36.985Z,8.50
2023-04-14T07:07:39.851Z,9.50
2023-04-14T07:08:44.030Z,8.00
2023-04-14T07:09:46.986Z,8.90
2023-04-14T07:10:49.983Z,10.80
2023-04-14T07:11:53.028Z,11.10
2023-04-14T07:12:56.890Z,12.18
2023-04-14T07:14:00.543Z,8.80
2023-04-14T07:15:04.306Z,10.50
2023-04-14T07:16:08.062Z,8.90
2023-04-14T07:17:11.718Z,10.80
2023-04-14T07:18:14.922Z,7.80
2023-04-14T07:19:18.092Z,9.50
2023-04-14T07:20:21.328Z,10.20
2023-04-14T07:21:25.546Z,10.80
2023-04-14T07:22:29.377Z,10.50
2023-04-14T07:23:33.135Z,9.60
2023-04-14T07:24:38.154Z,11.60
2023-04-14T07:25:41.192Z,10.50
2023-04-14T07:26:44.071Z,10.70
2023-04-14T07:28:00.375Z,9.20
2023-04-14T07:28:53.611Z,12.30
2023-04-14T07:29:58.415Z,11.45
2023-04-14T07:31:09.472Z,11.00
2023-04-14T07:32:13.822Z,9.30
2023-04-14T07:33:21.363Z,9.70
2023-04-14T07:34:24.478Z,8.70
2023-04-14T07:35:27.728Z,10.00
2023-04-14T07:36:31.977Z,11.40
2023-04-14T07:37:35.521Z,8.90
2023-04-14T07:38:38.444Z,11.40
2023-04-14T07:39:42.533Z,10.20
2023-04-14T07:40:46.483Z,10.70
2023-04-14T07:41:49.264Z,9.90
2023-04-14T07:42:52.159Z,10.73
2023-04-14T07:43:58.165Z,10.20
2023-04-14T07:45:04.544Z,11.20
2023-04-14T07:46:08.807Z,13.00
2023-04-14T07:47:11.863Z,8.10
2023-04-14T07:48:14.687Z,11.18
2023-04-14T07:49:18.082Z,11.45
2023-04-14T07:50:22.228Z,10.80
2023-04-14T07:51:25.279Z,11.10
2023-04-14T07:52:28.629Z,11.40
2023-04-14T07:53:32.285Z,11.60
2023-04-14T07:54:35.088Z,9.70
2023-04-14T07:55:37.957Z,10.80
2023-04-14T07:56:42.333Z,11.80
2023-04-14T07:57:46.642Z,10.80
2023-04-14T07:58:49.939Z,10.80
2023-04-14T07:59:52.544Z,10.60
2023-04-14T08:00:57.826Z,10.20
2023-04-14T08:02:02.306Z,11.20
2023-04-14T08:03:05.220Z,12.00
2023-04-14T08:04:08.814Z,10.90
2023-04-14T08:05:12.720Z,11.90
2023-04-14T08:06:16.435Z,13.50
2023-04-14T08:07:20.422Z,14.60
2023-04-14T08:08:24.679Z,16.20
2023-04-14T08:09:29.582Z,20.20
2023-04-14T08:10:34.233Z,16.30
2023-04-14T08:11:37.430Z,16.10
2023-04-14T08:12:40.640Z,13.40
2023-04-14T08:13:44.703Z,17.20
2023-04-14T08:14:48.491Z,16.60
2023-04-14T08:15:51.854Z,13.80
2023-04-14T08:16:55.681Z,16.50
2023-04-14T08:17:58.875Z,17.36
2023-04-14T08:19:03.471Z,16.20
2023-04-14T08:20:08.664Z,17.20
2023-04-14T08:21:12.490Z,17.90
2023-04-14T08:22:15.243Z,17.70
2023-04-14T08:23:18.094Z,15.73
2023-04-14T08:24:21.609Z,17.20
2023-04-14T08:25:24.788Z,18.60
2023-04-14T08:26:28.619Z,16.50
2023-04-14T08:27:32.035Z,16.80
2023-04-14T08:28:35.163Z,20.50
2023-04-14T08:29:37.990Z,18.00
2023-04-14T08:30:41.499Z,16.80
2023-04-14T08:31:44.945Z,14.20
2023-04-14T08:32:49.249Z,19.50
2023-04-14T08:33:52.881Z,19.20
2023-04-14T08:35:36.303Z,16.10
2023-04-14T08:36:01.103Z,17.90
2023-04-14T08:37:04.391Z,17.70
2023-04-14T08:38:07.388Z,17.30
2023-04-14T08:39:11.153Z,17.20
2023-04-14T08:40:16.117Z,18.70
2023-04-14T08:42:35.193Z,18.30
2023-04-14T08:43:37.942Z,21.00
2023-04-14T08:44:41.229Z,20.18
2023-04-14T08:45:44.147Z,17.50
2023-04-14T08:46:48.718Z,17.91
2023-04-14T08:47:51.473Z,17.80
2023-04-14T08:48:58.188Z,15.30
2023-04-14T08:51:28.156Z,17.30
2023-04-14T08:52:31.558Z,18.20
2023-04-14T08:53:35.098Z,14.20
2023-04-14T08:54:40.707Z,16.80
2023-04-14T08:55:43.943Z,16.50
2023-04-14T08:56:46.822Z,15.00
2023-04-14T08:57:50.310Z,16.00
2023-04-14T08:58:54.849Z,15.90
2023-04-14T09:00:00.494Z,16.40
2023-04-14T09:01:05.571Z,13.40
2023-04-14T09:02:09.344Z,15.20
2023-04-14T09:03:13.838Z,15.70
2023-04-14T09:04:19.726Z,14.60
2023-04-14T09:05:23.898Z,13.70
2023-04-14T09:06:28.858Z,12.20
2023-04-14T09:07:33.844Z,15.56
2023-04-14T09:08:37.378Z,11.50
2023-04-14T09:09:58.050Z,13.10
2023-04-14T09:11:05.541Z,14.30
2023-04-14T09:12:09.885Z,14.70
2023-04-14T09:13:18.055Z,14.20
2023-04-14T09:15:53.759Z,14.70
2023-04-14T09:16:57.581Z,14.10
2023-04-14T09:18:02.432Z,13.60
2023-04-14T09:19:06.415Z,13.10
2023-04-14T09:20:38.636Z,14.50
2023-04-14T09:21:49.592Z,13.70
2023-04-14T09:22:27.360Z,12.90
2023-04-14T09:23:31.467Z,14.20
2023-04-14T09:24:35.527Z,14.50
2023-04-14T09:25:40.422Z,14.50
2023-04-14T09:26:44.437Z,13.20
2023-04-14T09:27:49.509Z,13.00
2023-04-14T09:28:52.308Z,13.90
2023-04-14T09:29:59.141Z,11.73
2023-04-14T09:31:02.612Z,11.80
2023-04-14T09:32:06.162Z,13.20
2023-04-14T09:34:23.409Z,11.80
2023-04-14T09:35:30.077Z,13.20
2023-04-14T09:37:48.216Z,12.10
2023-04-14T09:38:51.270Z,14.40
2023-04-14T09:39:55.692Z,14.30
2023-04-14T09:40:58.519Z,12.40
2023-04-14T09:42:03.606Z,12.70
2023-04-14T09:43:06.717Z,13.30
2023-04-14T09:44:10.025Z,12.80
2023-04-14T09:45:13.272Z,11.10
2023-04-14T09:46:18.488Z,14.30
2023-04-14T09:47:25.310Z,12.30
2023-04-14T09:48:28.918Z,11.60
2023-04-14T09:49:35.154Z,12.60
2023-04-14T09:52:15.521Z,14.20
2023-04-14T09:53:29.753Z,13.50
2023-04-14T09:54:35.441Z,12.56
2023-04-14T09:56:57.231Z,13.70
2023-04-14T09:58:01.421Z,10.70
2023-04-14T09:59:07.465Z,12.70
2023-04-14T10:01:34.901Z,12.70
2023-04-14T10:02:51.731Z,13.90
2023-04-14T10:03:54.896Z,13.30
2023-04-14T10:05:07.911Z,11.50
2023-04-14T10:07:46.554Z,11.50
2023-04-14T10:08:51.119Z,12.50
2023-04-14T10:09:56.304Z,12.90
2023-04-14T10:12:23.854Z,10.80
2023-04-14T10:13:26.962Z,14.10
2023-04-14T10:14:30.074Z,13.40
2023-04-14T10:15:33.343Z,12.90
2023-04-14T10:16:37.012Z,13.10
2023-04-14T10:17:43.273Z,13.00
2023-04-14T10:20:15.975Z,10.50
2023-04-14T10:21:21.389Z,11.80
2023-04-14T10:22:27.712Z,14.70
2023-04-14T10:23:31.825Z,12.40
2023-04-14T10:24:37.062Z,11.20
2023-04-14T10:25:42.086Z,13.90
2023-04-14T10:26:47.878Z,9.30
2023-04-14T10:29:06.373Z,14.10
2023-04-14T10:30:13.425Z,11.40
2023-04-14T10:32:44.459Z,15.00
2023-04-14T10:33:48.827Z,11.40
2023-04-14T10:35:11.189Z,12.50
2023-04-14T10:37:40.199Z,13.30
2023-04-14T10:38:45.081Z,10.60
2023-04-14T10:39:56.478Z,12.90
2023-04-14T10:41:00.415Z,13.90
2023-04-14T10:42:03.421Z,13.60
2023-04-14T10:43:07.827Z,14.50
2023-04-14T10:45:53.699Z,14.60
2023-04-14T10:46:57.807Z,14.30
2023-04-14T10:48:00.849Z,13.90
2023-04-14T10:49:04.758Z,15.09
2023-04-14T10:50:14.673Z,15.00
2023-04-14T10:51:17.791Z,14.40
2023-04-14T10:52:25.769Z,8.20
2023-04-14T10:53:30.425Z,14.30
2023-04-14T10:54:53.025Z,14.10
2023-04-14T10:55:57.271Z,13.80
2023-04-14T10:57:09.637Z,14.60
2023-04-14T10:59:47.027Z,14.60
2023-04-14T11:00:49.926Z,7.90
2023-04-14T11:01:54.406Z,13.60
2023-04-14T11:03:03.570Z,15.00
2023-04-14T11:04:19.850Z,14.10
2023-04-14T11:05:24.370Z,13.80
2023-04-14T11:06:47.854Z,12.90
2023-04-14T11:08:01.501Z,14.10
2023-04-14T11:09:04.104Z,6.20
2023-04-14T11:11:36.220Z,11.20
2023-04-14T11:12:43.606Z,15.10
2023-04-14T11:13:47.215Z,10.80
2023-04-14T11:14:50.055Z,13.40
2023-04-14T11:16:07.558Z,13.91
2023-04-14T11:17:11.818Z,11.60
2023-04-14T11:19:47.658Z,12.50
2023-04-14T11:20:52.297Z,15.73
2023-04-14T11:21:55.791Z,13.50
2023-04-14T11:22:59.763Z,14.50
2023-04-14T11:24:04.029Z,13.80
2023-04-14T11:25:09.724Z,9.30
2023-04-14T11:27:28.433Z,13.60
2023-04-14T11:28:34.181Z,13.20
2023-04-14T11:29:36.803Z,13.50
2023-04-14T11:30:40.343Z,11.18
2023-04-14T11:31:43.932Z,13.40
2023-04-14T11:32:51.983Z,16.40
2023-04-14T11:33:55.925Z,13.90
2023-04-14T11:35:06.847Z,14.80
2023-04-14T11:36:11.852Z,12.70
2023-04-14T11:37:14.578Z,11.10
2023-04-14T11:38:17.784Z,14.45
2023-04-14T11:39:22.234Z,14.00
2023-04-14T11:40:26.869Z,12.50
2023-04-14T11:41:29.776Z,15.10
2023-04-14T11:42:33.275Z,14.20
2023-04-14T11:43:38.053Z,13.20
2023-04-14T11:44:41.545Z,14.10
2023-04-14T11:45:44.910Z,14.00
2023-04-14T11:46:47.992Z,15.90
2023-04-14T11:48:02.758Z,15.30
2023-04-14T11:49:06.648Z,14.50
2023-04-14T11:50:11.097Z,13.50
2023-04-14T11:51:14.469Z,12.50
2023-04-14T11:52:19.796Z,13.80
2023-04-14T11:53:23.067Z,13.60
2023-04-14T11:54:32.106Z,13.20
2023-04-14T11:55:35.213Z,12.80
2023-04-14T11:56:39.855Z,11.70
2023-04-14T11:57:55.982Z,13.40
2023-04-14T11:59:03.884Z,13.60
2023-04-14T12:00:10.781Z,14.00
2023-04-14T12:01:14.445Z,12.70
2023-04-14T12:03:34.512Z,13.20
2023-04-14T12:04:38.278Z,12.40
2023-04-14T12:05:41.961Z,11.70
2023-04-14T12:06:45.029Z,13.70
2023-04-14T12:07:50.405Z,15.20
2023-04-14T12:08:54.242Z,13.70
2023-04-14T12:09:58.849Z,12.40
2023-04-14T12:11:12.931Z,15.30
2023-04-14T12:13:30.142Z,15.00
2023-04-14T12:14:33.236Z,14.50
2023-04-14T12:15:37.091Z,15.80
2023-04-14T12:17:54.355Z,19.40
2023-04-14T12:18:57.869Z,19.90
2023-04-14T12:20:00.671Z,20.64
2023-04-14T12:21:06.437Z,22.73
2023-04-14T12:22:09.770Z,22.30
2023-04-14T12:23:12.985Z,21.82
2023-04-14T12:24:16.616Z,22.30
2023-04-14T12:25:19.435Z,23.60
2023-04-14T12:26:23.779Z,21.64
2023-04-14T12:27:28.615Z,21.80
2023-04-14T12:28:33.103Z,22.90
2023-04-14T12:29:36.802Z,22.30
2023-04-14T12:30:40.710Z,21.30
2023-04-14T12:31:44.260Z,25.40
2023-04-14T12:32:48.776Z,23.50
2023-04-14T12:33:54.304Z,23.40
2023-04-14T12:34:58.113Z,25.00
2023-04-14T12:36:07.337Z,22.70
2023-04-14T12:37:11.555Z,23.90
2023-04-14T12:38:15.484Z,14.10
2023-04-14T12:39:21.888Z,24.90
2023-04-14T12:40:43.570Z,22.20
2023-04-14T12:41:47.959Z,20.20
2023-04-14T12:42:51.482Z,25.00
2023-04-14T12:43:55.432Z,24.70
2023-04-14T12:44:59.656Z,23.40
2023-04-14T12:46:03.375Z,24.50
2023-04-14T12:48:19.000Z,26.10
2023-04-14T12:49:37.560Z,27.30
2023-04-14T12:50:40.810Z,26.10
2023-04-14T12:51:44.196Z,24.30
2023-04-14T12:52:47.738Z,26.60
2023-04-14T12:53:51.284Z,22.50
2023-04-14T12:54:55.013Z,27.70
2023-04-14T12:56:09.949Z,25.44
2023-04-14T12:57:13.184Z,19.70
2023-04-14T12:58:17.975Z,23.90
2023-04-14T12:59:20.879Z,27.80
2023-04-14T13:00:26.681Z,25.73
2023-04-14T13:01:30.132Z,24.30
2023-04-14T13:02:34.881Z,24.70
2023-04-14T13:04:53.440Z,23.30
2023-04-14T13:05:56.216Z,23.10
2023-04-14T13:06:59.850Z,21.73
2023-04-14T13:08:02.864Z,19.90
2023-04-14T13:09:05.622Z,19.80
2023-04-14T13:10:09.358Z,22.80
2023-04-14T13:12:26.637Z,21.90
2023-04-14T13:13:29.812Z,19.30
2023-04-14T13:14:32.879Z,20.80
2023-04-14T13:16:14.082Z,20.50
2023-04-14T13:16:41.504Z,18.60
2023-04-14T13:17:45.123Z,25.40
2023-04-14T13:18:48.546Z,21.40
2023-04-14T13:19:52.004Z,19.70
2023-04-14T13:20:55.439Z,20.50
2023-04-14T13:21:59.659Z,18.60
2023-04-14T13:23:04.397Z,18.20
2023-04-14T13:24:07.571Z,20.00
2023-04-14T13:25:10.862Z,19.20
2023-04-14T13:26:16.056Z,18.30
2023-04-14T13:27:19.428Z,20.20
2023-04-14T13:28:22.357Z,15.50
2023-04-14T13:29:27.712Z,21.80
2023-04-14T13:30:41.359Z,19.70
2023-04-14T13:31:45.098Z,18.20
2023-04-14T13:32:48.098Z,21.40
2023-04-14T13:33:52.544Z,18.00
2023-04-14T13:34:56.834Z,17.90
2023-04-14T13:36:01.875Z,18.10
2023-04-14T13:37:06.278Z,17.10
2023-04-14T13:38:09.159Z,20.40
2023-04-14T13:39:12.074Z,17.80
2023-04-14T13:40:16.318Z,13.80
2023-04-14T13:41:19.153Z,17.40
2023-04-14T13:42:22.654Z,18.70
2023-04-14T13:43:25.677Z,20.10
2023-04-14T13:44:28.492Z,18.70
2023-04-14T13:45:31.854Z,17.09
2023-04-14T13:46:40.946Z,21.20
2023-04-14T13:47:39.473Z,19.10
2023-04-14T13:48:45.275Z,19.70
2023-04-14T13:49:48.029Z,19.10
2023-04-14T13:50:51.256Z,20.27
2023-04-14T13:51:54.381Z,19.20
2023-04-14T13:52:57.058Z,19.00
2023-04-14T13:54:00.249Z,18.50
2023-04-14T13:55:03.720Z,18.20
2023-04-14T13:56:07.460Z,16.80
2023-04-14T13:57:10.515Z,13.40
2023-04-14T13:58:13.429Z,16.30
2023-04-14T13:59:16.703Z,19.45
2023-04-14T14:00:21.042Z,18.50
2023-04-14T14:01:25.662Z,13.80
2023-04-14T14:02:29.455Z,16.20
2023-04-14T14:03:32.675Z,14.80
2023-04-14T14:04:37.372Z,17.20
2023-04-14T14:05:40.856Z,14.40
2023-04-14T14:06:44.535Z,16.82
2023-04-14T14:07:47.913Z,15.60
2023-04-14T14:09:06.081Z,16.80
2023-04-14T14:10:11.101Z,19.10
2023-04-14T14:11:14.392Z,18.10
2023-04-14T14:12:17.465Z,19.50
2023-04-14T14:13:25.290Z,19.00
2023-04-14T14:14:31.780Z,16.80
2023-04-14T14:15:35.353Z,17.40
2023-04-14T14:16:39.376Z,17.20
2023-04-14T14:17:42.281Z,16.50
2023-04-14T14:18:46.448Z,14.50
2023-04-14T14:19:49.168Z,17.50
2023-04-14T14:20:52.485Z,20.09
2023-04-14T14:21:55.674Z,20.82
2023-04-14T14:22:59.696Z,17.50
2023-04-14T14:24:03.227Z,1.30
2023-04-14T14:25:19.134Z,17.90
2023-04-14T14:26:13.630Z,17.00
2023-04-14T14:27:16.431Z,15.90
2023-04-14T14:28:21.095Z,17.09
2023-04-14T14:29:25.250Z,19.10
2023-04-14T14:30:28.402Z,16.80
2023-04-14T14:31:32.101Z,17.90
2023-04-14T14:32:35.482Z,18.10
2023-04-14T14:33:39.578Z,18.60
2023-04-14T14:34:44.116Z,16.30
2023-04-14T14:35:47.628Z,17.10
2023-04-14T14:36:51.659Z,15.50
2023-04-14T14:37:54.574Z,11.60
2023-04-14T14:38:58.475Z,15.50
2023-04-14T14:40:02.376Z,13.80
2023-04-14T14:41:05.948Z,16.70
2023-04-14T14:42:09.111Z,20.40
2023-04-14T14:43:11.839Z,15.30
2023-04-14T14:44:15.271Z,16.60
2023-04-14T14:45:27.506Z,15.80
2023-04-14T14:46:24.534Z,13.80
2023-04-14T14:47:29.584Z,8.90
2023-04-14T14:48:32.821Z,15.70
2023-04-14T14:49:39.211Z,19.50
2023-04-14T14:50:41.017Z,16.00
2023-04-14T14:51:43.650Z,15.82
2023-04-14T14:52:47.054Z,14.30
2023-04-14T14:53:51.459Z,15.70
2023-04-14T14:54:55.489Z,14.40
2023-04-14T14:55:58.913Z,12.60
2023-04-14T14:57:02.317Z,14.30